Latest Weather Observations for Clare

IDS60801

Issued at 6:31 pm CST Friday 6 May 2016 (issued every 30 minutes, with the page automatically refreshed every 10 minutes)

About weather observations | Map of weather stations | Latest weather observations for SA | Other Formats
Station Details ID: 021131 Name: CLARE HIGH SCHOOL Lat: -33.82 Lon: 138.59 Height: 395.0 m
Data from the previous 72 hours. | See also: Recent months at Clare
Date/Time
CST
Temp
°C
App
Temp
°C
Dew
Point
Rel
Hum
%
Delta-T
°C
Wind Press
QNH
hPa
Press
MSL
hPa
Rain
since 9 am
mm
Dir
 
Spd
km/h
Gust
km/h
Spd
kts
Gust
kts
06/06:30pm 18.3 16.4 7.4 49 5.6 S 7 11 4 6 1014.2 - 0.0
06/06:00pm 18.7 16.9 5.5 42 6.6 S 4 9 2 5 1014.0 1014.0 0.0
06/05:30pm 20.6 18.4 5.4 37 7.7 SW 6 11 3 6 1013.8 - 0.0
06/05:00pm 22.4 19.7 5.4 33 8.7 WSW 9 15 5 8 1013.7 - 0.0
06/04:30pm 23.6 20.1 5.5 31 9.3 W 13 22 7 12 1013.6 - 0.0
06/04:00pm 24.9 21.5 5.7 29 10.0 W 13 20 7 11 1013.6 - 0.0
06/03:30pm 25.6 20.5 4.1 25 10.9 WNW 20 32 11 17 1013.5 - 0.0
06/03:00pm 26.1 21.1 4.6 25 11.1 WNW 20 30 11 16 1013.4 1013.3 0.0
06/02:30pm 26.0 21.1 3.9 24 11.2 NW 19 26 10 14 1013.6 - 0.0
06/02:00pm 25.7 20.5 3.6 24 11.1 NW 20 37 11 20 1013.7 - 0.0
06/01:30pm 25.3 19.8 3.9 25 10.8 NW 22 32 12 17 1013.8 - 0.0
06/01:00pm 24.7 19.8 3.9 26 10.5 NW 19 32 10 17 1014.0 - 0.0
06/12:30pm 24.3 19.5 4.6 28 10.0 NW 19 30 10 16 1014.7 - 0.0
06/12:00pm 23.5 18.1 4.5 29 9.6 NW 22 33 12 18 1015.6 1015.5 0.0
06/11:30am 23.3 19.0 5.2 31 9.2 NNW 17 26 9 14 1016.1 - 0.0
06/11:00am 22.3 18.3 4.8 32 8.8 NW 15 22 8 12 1016.5 - 0.0
06/10:30am 21.3 19.3 7.2 40 7.4 NW 7 19 4 10 1016.7 - 0.0
06/10:00am 19.6 17.7 7.7 46 6.2 NNW 7 13 4 7 1016.9 - 0.0
06/09:30am 18.4 17.2 8.1 51 5.4 NNW 4 9 2 5 1016.9 - 0.0
06/09:00am 16.3 14.5 7.3 55 4.6 WNW 6 13 3 7 1016.8 1016.8 0.0
06/08:30am 15.2 14.5 7.0 58 4.1 CALM 0 7 0 4 1016.6 - 0.0
06/08:00am 12.9 12.1 8.0 72 2.5 N 2 7 1 4 1016.4 - 0.0
06/07:30am 8.9 8.2 7.0 88 0.9 CALM 0 0 0 0 1016.1 - 0.0
06/07:00am 7.9 7.1 6.4 90 0.7 CALM 0 0 0 0 1015.8 - 0.0
06/06:30am 8.1 7.3 6.6 90 0.7 CALM 0 0 0 0 1015.7 - 0.0
06/06:00am 8.7 8.0 6.8 88 0.9 CALM 0 0 0 0 1015.5 1015.4 0.0
06/05:30am 8.4 7.6 6.7 89 0.8 CALM 0 0 0 0 1015.1 - 0.0
06/05:00am 8.6 7.9 6.9 89 0.8 CALM 0 0 0 0 1014.7 - 0.0
06/04:30am 8.5 7.8 6.8 89 0.8 CALM 0 0 0 0 1014.5 - 0.0
06/04:00am 8.4 7.6 6.5 88 0.9 CALM 0 0 0 0 1014.3 - 0.0
06/03:30am 9.6 8.9 7.0 84 1.3 CALM 0 0 0 0 1014.5 - 0.0
06/03:00am 10.1 9.5 7.3 83 1.4 CALM 0 0 0 0 1014.4 1014.4 0.0
06/02:30am 10.7 10.0 7.0 78 1.8 CALM 0 0 0 0 1014.5 - 0.0
06/02:00am 12.3 11.7 7.4 72 2.4 CALM 0 0 0 0 1014.5 - 0.0
06/01:30am 11.7 11.1 7.6 76 2.0 CALM 0 0 0 0 1014.4 - 0.0
06/01:00am 11.6 11.0 7.5 76 2.0 CALM 0 0 0 0 1014.5 - 0.0
06/12:30am 12.4 11.8 7.5 72 2.4 CALM 0 0 0 0 1014.5 - 0.0
06/12:00am 12.0 11.3 7.1 72 2.4 CALM 0 0 0 0 1014.3 1014.3 0.0
 
Date/Time
CST
Temp
°C
App
Temp
°C
Dew
Point
Rel
Hum
%
Delta-T
°C
Wind Press
QNH
hPa
Press
MSL
hPa
Rain
since 9 am
mm
Dir
 
Spd
km/h
Gust
km/h
Spd
kts
Gust
kts
05/11:30pm 12.8 12.1 7.0 68 2.9 CALM 0 0 0 0 1014.4 - 0.0
05/11:00pm 13.5 12.9 7.3 66 3.1 CALM 0 0 0 0 1014.6 - 0.0
05/10:30pm 13.7 12.7 7.5 66 3.1 NNW 2 7 1 4 1014.6 - 0.0
05/10:00pm 13.5 12.9 7.3 66 3.1 CALM 0 7 0 4 1014.7 - 0.0
05/09:30pm 13.0 12.4 7.2 68 2.9 CALM 0 0 0 0 1014.9 - 0.0
05/09:00pm 11.9 11.3 7.6 75 2.1 CALM 0 0 0 0 1014.8 1014.8 0.0
05/08:30pm 12.1 11.6 8.0 76 2.1 CALM 0 0 0 0 1014.6 - 0.0
05/08:00pm 13.3 12.8 7.7 69 2.8 CALM 0 0 0 0 1014.5 - 0.0
05/07:30pm 14.0 13.6 8.2 68 3.0 CALM 0 0 0 0 1014.5 - 0.0
05/07:00pm 14.6 14.2 8.3 66 3.2 CALM 0 0 0 0 1014.3 - 0.0
05/06:30pm 16.9 16.4 7.8 55 4.7 CALM 0 0 0 0 1014.1 - 0.0
05/06:00pm 18.4 16.6 7.2 48 5.8 WNW 6 9 3 5 1013.9 1013.9 0.0
05/05:30pm 20.0 17.2 7.1 43 6.7 WNW 11 17 6 9 1013.7 - 0.0
05/05:00pm 20.8 17.3 7.4 42 7.0 NW 15 24 8 13 1013.6 - 0.0
05/04:30pm 21.5 17.7 7.7 41 7.3 WNW 17 26 9 14 1013.6 - 0.0
05/04:00pm 21.7 17.9 7.5 40 7.5 NW 17 32 9 17 1013.7 - 0.0
05/03:30pm 21.8 17.5 8.0 41 7.4 NW 20 32 11 17 1013.6 - 0.0
05/03:00pm 22.1 17.4 7.9 40 7.6 WNW 22 35 12 19 1013.6 1013.5 0.0
05/02:30pm 21.8 17.4 7.6 40 7.5 WNW 20 32 11 17 1013.8 - 0.0
05/02:00pm 21.5 16.3 7.3 40 7.5 WNW 24 39 13 21 1014.0 - 0.0
05/01:30pm 21.5 16.2 7.0 39 7.6 WNW 24 41 13 22 1014.2 - 0.0
05/01:00pm 21.3 17.1 8.2 43 7.0 WNW 20 35 11 19 1014.4 - 0.0
05/12:30pm 21.4 17.3 8.7 44 6.8 WNW 20 35 11 19 1014.9 - 0.0
05/12:00pm 20.6 16.0 8.3 45 6.5 NW 22 33 12 18 1015.5 1015.4 0.0
05/11:30am 20.0 15.7 9.3 50 5.8 NW 22 35 12 19 1016.1 - 0.0
05/11:00am 19.4 14.7 9.3 52 5.4 NW 24 35 13 19 1016.4 - 0.0
05/10:30am 19.1 14.8 9.3 53 5.3 NW 22 37 12 20 1016.9 - 0.0
05/10:00am 17.6 16.2 10.9 65 3.7 NNW 9 17 5 9 1017.0 - 0.0
05/09:30am 14.5 13.1 9.7 73 2.5 NNW 7 9 4 5 1017.2 - 0.0
05/09:00am 12.5 11.7 9.5 82 1.6 NNW 4 9 2 5 1017.3 1017.3 0.2
05/08:30am 10.4 10.0 8.3 87 1.0 CALM 0 0 0 0 1017.1 - 0.2
05/08:00am 9.0 8.8 8.9 99 0.0 CALM 0 0 0 0 1017.1 - 0.2
05/07:30am 6.5 5.7 6.4 99 0.0 CALM 0 0 0 0 1017.0 - 0.2
05/07:00am 6.6 5.8 6.5 99 0.0 CALM 0 6 0 3 1016.8 - 0.2
05/06:30am 6.1 5.2 6.0 99 0.0 CALM 0 0 0 0 1016.7 - 0.2
05/06:00am 5.9 4.9 5.8 99 0.0 CALM 0 0 0 0 1016.5 1016.5 0.2
05/05:30am 6.2 5.3 6.1 99 0.0 CALM 0 0 0 0 1016.3 - 0.2
05/05:00am 6.7 5.9 6.4 98 0.1 CALM 0 0 0 0 1016.2 - 0.2
05/04:30am 7.5 6.9 7.4 99 0.0 CALM 0 0 0 0 1016.2 - 0.2
05/04:00am 6.7 5.9 6.6 99 0.0 CALM 0 0 0 0 1016.3 - 0.2
05/03:30am 6.4 5.6 6.3 99 0.0 CALM 0 0 0 0 1016.3 - 0.2
05/03:00am 6.7 5.9 6.6 99 0.0 CALM 0 0 0 0 1016.4 1016.4 0.2
05/02:30am 6.7 5.9 6.6 99 0.0 CALM 0 0 0 0 1016.5 - 0.2
05/02:00am 7.0 6.3 6.9 99 0.0 CALM 0 0 0 0 1016.7 - 0.2
05/01:30am 7.4 6.8 7.3 99 0.0 CALM 0 0 0 0 1017.0 - 0.2
05/01:00am 7.7 7.1 7.6 99 0.0 CALM 0 0 0 0 1016.9 - 0.2
05/12:30am 7.8 7.2 7.5 98 0.1 CALM 0 0 0 0 1017.1 - 0.2
05/12:00am 8.3 7.8 7.9 97 0.2 CALM 0 0 0 0 1017.2 1017.2 0.2
 
Date/Time
CST
Temp
°C
App
Temp
°C
Dew
Point
Rel
Hum
%
Delta-T
°C
Wind Press
QNH
hPa
Press
MSL
hPa
Rain
since 9 am
mm
Dir
 
Spd
km/h
Gust
km/h
Spd
kts
Gust
kts
04/11:30pm 8.8 8.4 8.2 96 0.3 CALM 0 0 0 0 1017.3 - 0.2
04/11:00pm 9.3 8.9 8.4 94 0.4 CALM 0 0 0 0 1017.5 - 0.2
04/10:30pm 9.8 9.4 8.4 91 0.7 CALM 0 0 0 0 1017.6 - 0.2
04/10:00pm 10.5 10.2 8.6 88 1.0 CALM 0 0 0 0 1017.8 - 0.2
04/09:30pm 11.1 10.9 9.0 87 1.1 CALM 0 0 0 0 1017.8 - 0.2
04/09:00pm 11.3 11.1 8.9 85 1.2 CALM 0 0 0 0 1017.8 1017.8 0.2
04/08:30pm 12.7 12.4 8.8 77 2.0 CALM 0 0 0 0 1017.7 - 0.2
04/08:00pm 14.3 14.1 8.9 70 2.8 CALM 0 0 0 0 1017.6 - 0.2
04/07:30pm 14.4 13.5 9.2 71 2.7 NW 4 9 2 5 1017.5 - 0.2
04/07:00pm 14.6 14.4 9.0 69 2.9 CALM 0 0 0 0 1017.3 - 0.2
04/06:30pm 14.7 14.1 8.9 68 3.0 NW 2 7 1 4 1017.1 - 0.2
04/06:00pm 14.9 13.3 8.8 67 3.2 WNW 7 13 4 7 1016.8 1016.8 0.2
04/05:30pm 15.1 12.7 8.6 65 3.4 WNW 11 20 6 11 1016.7 - 0.2
04/05:00pm 15.2 12.0 8.4 64 3.5 WNW 15 22 8 12 1016.6 - 0.2
04/04:30pm 15.4 12.6 8.6 64 3.5 W 13 20 7 11 1016.4 - 0.2
04/04:00pm 16.2 12.2 8.2 59 4.1 W 19 35 10 19 1016.2 - 0.2
04/03:30pm 17.0 13.4 8.4 57 4.5 WNW 17 28 9 15 1016.2 - 0.2
04/03:00pm 16.5 12.9 8.5 59 4.2 WNW 17 24 9 13 1016.3 1016.3 0.2
04/02:30pm 15.7 12.6 8.9 64 3.6 W 15 24 8 13 1016.5 - 0.2
04/02:00pm 15.5 12.0 8.7 64 3.5 W 17 28 9 15 1016.5 - 0.0
04/01:30pm 13.5 10.7 11.4 87 1.1 WNW 17 22 9 12 1016.6 - 0.0
04/01:00pm 15.4 12.4 9.1 66 3.3 WNW 15 24 8 13 1016.9 - 0.0
04/12:30pm 14.9 11.8 8.8 67 3.2 WNW 15 26 8 14 1017.3 - 0.0
04/12:00pm 15.1 11.8 9.7 70 2.9 WNW 17 26 9 14 1017.6 1017.6 0.0
04/11:30am 14.3 11.1 10.1 76 2.2 WNW 17 22 9 12 1018.1 - 0.0
04/11:00am 13.8 11.1 10.2 79 1.9 WNW 15 22 8 12 1018.2 - 0.0
04/10:30am 13.5 11.7 10.9 84 1.4 W 11 22 6 12 1018.3 - 0.0
04/10:00am 12.4 9.9 11.1 92 0.7 WNW 15 20 8 11 1018.4 - 0.0
04/09:30am 12.4 10.2 10.8 90 0.9 WNW 13 20 7 11 1018.2 - 0.0
04/09:00am 12.4 9.9 11.0 91 0.7 WNW 15 24 8 13 1018.0 1017.9 6.4
04/08:30am 11.7 9.8 10.4 92 0.7 WNW 11 17 6 9 1017.8 - 6.4
04/08:00am 10.2 9.9 10.0 99 0.1 WNW 2 7 1 4 1017.5 - 6.4
04/07:30am 9.6 9.5 9.5 99 0.1 CALM 0 0 0 0 1017.3 - 6.4
04/07:00am 9.2 7.9 9.1 99 0.1 NW 6 7 3 4 1016.9 - 6.4
04/06:30am 9.7 8.9 9.6 99 0.1 NW 4 9 2 5 1016.4 - 6.4
04/06:00am 10.2 10.3 10.0 99 0.1 CALM 0 0 0 0 1016.2 1016.2 6.4
04/05:30am 10.1 10.1 9.9 99 0.1 CALM 0 0 0 0 1015.9 - 6.2
04/05:00am 10.3 9.2 10.0 98 0.2 W 6 13 3 7 1015.6 - 6.2
04/04:30am 10.5 8.9 10.2 98 0.2 W 9 17 5 9 1015.4 - 6.2
04/04:00am 10.5 8.9 10.3 99 0.1 WSW 9 15 5 8 1015.3 - 6.2
04/03:30am 10.7 8.8 10.5 99 0.1 W 11 19 6 10 1015.1 - 6.2
04/03:00am 11.0 8.4 10.8 99 0.1 W 15 24 8 13 1015.0 1015.0 6.2
04/02:30am 11.3 9.2 11.1 99 0.1 W 13 24 7 13 1015.0 - 6.2
04/02:00am 11.5 9.4 11.3 99 0.1 W 13 20 7 11 1014.8 - 6.2
04/01:30am 11.4 9.3 11.2 99 0.1 W 13 19 7 10 1014.8 - 6.2
04/01:00am 11.5 9.4 11.3 99 0.1 W 13 20 7 11 1014.8 - 6.2
04/12:30am 11.3 8.8 11.1 99 0.1 W 15 24 8 13 1014.8 - 6.2
04/12:00am 11.6 8.8 11.4 99 0.1 WSW 17 28 9 15 1014.7 1014.7 5.8
 
Date/Time
CST
Temp
°C
App
Temp
°C
Dew
Point
Rel
Hum
%
Delta-T
°C
Wind Press
QNH
hPa
Press
MSL
hPa
Rain
since 9 am
mm
Dir
 
Spd
km/h
Gust
km/h
Spd
kts
Gust
kts
03/11:30pm 11.6 9.6 11.4 99 0.1 W 13 20 7 11 1014.6 - 4.8
03/11:00pm 11.8 9.1 11.6 99 0.1 WSW 17 28 9 15 1014.7 - 4.8
03/10:30pm 12.0 10.1 11.8 99 0.1 W 13 20 7 11 1014.6 - 4.6
03/10:00pm 11.9 10.0 11.7 99 0.1 W 13 22 7 12 1014.6 - 4.6
03/09:30pm 12.0 9.7 11.8 99 0.1 W 15 24 8 13 1014.5 - 4.4
03/09:00pm 12.0 9.3 11.8 99 0.1 W 17 26 9 14 1014.3 1014.3 4.2
03/08:30pm 12.2 10.0 12.0 99 0.1 W 15 24 8 13 1014.1 - 3.4
03/08:00pm 12.1 9.1 11.9 99 0.1 W 19 32 10 17 1013.8 - 2.8
03/07:30pm 12.3 9.6 11.7 96 0.3 W 17 26 9 14 1013.4 - 1.8
03/07:00pm 12.2 10.4 12.0 99 0.1 W 13 20 7 11 1012.9 - 1.8

Other Formats:

Comma delimited format used in spreadsheet applications
http://www.bom.gov.au/fwo/IDS60801/IDS60801.95667.axf

JavaScript Object Notation format (JSON) in row-major order
http://www.bom.gov.au/fwo/IDS60801/IDS60801.95667.json